Pagrindinis puslapis
METAR-TAF:

METAR-TAF

Oro uostai :

Formosa, Argentina

platuma: 26-12S, ilguma: 058-14W, Aukštis: 59 m

Dabartinis oras

Ataskaita buvo paskelbta 16 minutes, ne 14:00 UTC
Vėjas 14 kt iš Pietų/Pietryčių
Temperatūra 19°C
Drėgmė 37%
Slėgis 1021 hPa
Matomumas 10 km arba daugiau
nėra debesų žemiau 1500 m ir nėra kamuolinių lietaus debesų

METAR: SARF 201400Z 16014KT CAVOK 19/04 Q1021

Laikas: 11:16 (14:16 UTC)

Prognozė

Ataskaita buvo paskelbta 3 valandos ir 16 minutes, ne 11:00 UTC
Prognozė galioja nuo 20 metu 12 UTC su 21 metu 12 UTC
Vėjas 10 kt iš Pietų/Pietryčių
Matomumas 10 km arba daugiau
nėra debesų žemiau 1500 m ir nėra kamuolinių lietaus debesų
Tapsmas
nuo 20 metu 14 UTC su 20 metu 16 UTC
Su prošvaistėmis ne aukštis 3500 ft
Laikinai
nuo 20 metu 20 UTC su 20 metu 24 UTC
Matomumas: 6000 m
Su prošvaistėmis ne aukštis 2000 ft
Mažai debesys ne aukštis 5000 ft, Liūtiniai kamuoliniai debesys.
lietus

TAF: SARF 201100Z 2012/2112 16010KT CAVOK TX25/2018Z TN13/2109Z BECMG 2014/2016 BKN035 TEMPO 2020/2024 6000 SHRA BKN020 FEW050CB

Orai ataskaitas ir orų prognozės (METAR, TAF).

turimą stotys yra geltonos ir raudonos taškus žemėlapyje.

Perkelti pele per norėdami pamatyti stoties vardą.

Tada spustelėkite, norėdami matyti oro stebėjimo ir prognozės.

Norėdami pakeisti žemėlapį: spustelėkite ant žalios mygtukų su juodo kryžiaus žemyn,; žalią mygtuką su brūkšneliu, jei norite nutolinti; arba žalių rodyklių gretimoms žemėlapius.


METAR-TAF: